sensor_id;sensor_type;location;lat;lon;timestamp;P1;durP1;ratioP1;P2;durP2;ratioP2
35223;SDS011;21367;51.930;8.112;2023-07-08T00:01:07;349.88;;;320.00;;
35223;SDS011;21367;51.930;8.112;2023-07-08T00:06:15;391.30;;;357.13;;
35223;SDS011;21367;51.930;8.112;2023-07-08T00:11:21;354.85;;;322.27;;
35223;SDS011;21367;51.930;8.112;2023-07-08T00:16:28;344.25;;;311.88;;
35223;SDS011;21367;51.930;8.112;2023-07-08T00:21:32;269.38;;;243.93;;
35223;SDS011;21367;51.930;8.112;2023-07-08T00:26:35;278.50;;;251.05;;
35223;SDS011;21367;51.930;8.112;2023-07-08T00:31:42;359.80;;;323.02;;
35223;SDS011;21367;51.930;8.112;2023-07-08T00:36:46;397.40;;;354.80;;
35223;SDS011;21367;51.930;8.112;2023-07-08T00:41:49;501.00;;;408.42;;
35223;SDS011;21367;51.930;8.112;2023-07-08T00:47:01;551.30;;;445.67;;
35223;SDS011;21367;51.930;8.112;2023-07-08T00:52:22;499.92;;;385.30;;
35223;SDS011;21367;51.930;8.112;2023-07-08T00:57:27;471.48;;;365.98;;
35223;SDS011;21367;51.930;8.112;2023-07-08T01:02:39;465.45;;;375.20;;
35223;SDS011;21367;51.930;8.112;2023-07-08T01:07:48;506.15;;;419.98;;
35223;SDS011;21367;51.930;8.112;2023-07-08T01:12:55;563.72;;;451.92;;
35223;SDS011;21367;51.930;8.112;2023-07-08T01:18:05;490.77;;;399.90;;
35223;SDS011;21367;51.930;8.112;2023-07-08T01:23:14;198.02;;;181.88;;
35223;SDS011;21367;51.930;8.112;2023-07-08T01:28:18;145.95;;;133.80;;
35223;SDS011;21367;51.930;8.112;2023-07-08T01:39:31;132.82;;;122.05;;
35223;SDS011;21367;51.930;8.112;2023-07-08T01:44:35;142.15;;;131.10;;
35223;SDS011;21367;51.930;8.112;2023-07-08T01:49:39;163.00;;;150.30;;
35223;SDS011;21367;51.930;8.112;2023-07-08T01:54:48;165.33;;;152.53;;
35223;SDS011;21367;51.930;8.112;2023-07-08T01:59:58;144.15;;;132.77;;
35223;SDS011;21367;51.930;8.112;2023-07-08T02:05:01;134.27;;;123.88;;
35223;SDS011;21367;51.930;8.112;2023-07-08T02:10:08;135.32;;;124.63;;
35223;SDS011;21367;51.930;8.112;2023-07-08T02:15:13;103.07;;;92.88;;
35223;SDS011;21367;51.930;8.112;2023-07-08T02:20:16;109.18;;;100.45;;
35223;SDS011;21367;51.930;8.112;2023-07-08T02:25:22;107.93;;;99.45;;
35223;SDS011;21367;51.930;8.112;2023-07-08T02:30:26;98.85;;;91.13;;
35223;SDS011;21367;51.930;8.112;2023-07-08T02:35:30;85.13;;;78.25;;
35223;SDS011;21367;51.930;8.112;2023-07-08T02:40:36;77.22;;;70.45;;
35223;SDS011;21367;51.930;8.112;2023-07-08T02:45:40;64.43;;;58.83;;
35223;SDS011;21367;51.930;8.112;2023-07-08T02:50:44;68.97;;;63.05;;
35223;SDS011;21367;51.930;8.112;2023-07-08T02:55:51;80.57;;;73.28;;
35223;SDS011;21367;51.930;8.112;2023-07-08T03:00:55;101.97;;;92.85;;
35223;SDS011;21367;51.930;8.112;2023-07-08T03:06:01;85.78;;;78.15;;
35223;SDS011;21367;51.930;8.112;2023-07-08T03:11:09;101.78;;;92.85;;
35223;SDS011;21367;51.930;8.112;2023-07-08T03:16:13;102.63;;;93.60;;
35223;SDS011;21367;51.930;8.112;2023-07-08T03:21:18;100.00;;;90.70;;
35223;SDS011;21367;51.930;8.112;2023-07-08T03:26:25;96.95;;;88.53;;
35223;SDS011;21367;51.930;8.112;2023-07-08T03:31:29;112.47;;;102.63;;
35223;SDS011;21367;51.930;8.112;2023-07-08T03:36:33;98.88;;;90.55;;
35223;SDS011;21367;51.930;8.112;2023-07-08T03:41:40;119.20;;;109.13;;
35223;SDS011;21367;51.930;8.112;2023-07-08T03:46:44;101.95;;;93.20;;
35223;SDS011;21367;51.930;8.112;2023-07-08T03:51:52;139.60;;;127.97;;
35223;SDS011;21367;51.930;8.112;2023-07-08T03:56:59;108.63;;;99.03;;
35223;SDS011;21367;51.930;8.112;2023-07-08T04:02:03;101.22;;;92.85;;
35223;SDS011;21367;51.930;8.112;2023-07-08T04:07:07;105.80;;;97.38;;
35223;SDS011;21367;51.930;8.112;2023-07-08T04:12:15;113.10;;;104.15;;
35223;SDS011;21367;51.930;8.112;2023-07-08T04:17:19;98.65;;;90.28;;
35223;SDS011;21367;51.930;8.112;2023-07-08T04:22:23;87.07;;;79.75;;
35223;SDS011;21367;51.930;8.112;2023-07-08T04:27:30;64.53;;;58.83;;
35223;SDS011;21367;51.930;8.112;2023-07-08T04:32:33;66.55;;;60.25;;
35223;SDS011;21367;51.930;8.112;2023-07-08T04:37:38;60.97;;;55.78;;
35223;SDS011;21367;51.930;8.112;2023-07-08T04:42:44;60.25;;;55.30;;
35223;SDS011;21367;51.930;8.112;2023-07-08T04:47:49;63.63;;;58.08;;
35223;SDS011;21367;51.930;8.112;2023-07-08T04:52:53;78.88;;;72.25;;
35223;SDS011;21367;51.930;8.112;2023-07-08T04:57:59;75.15;;;69.00;;
35223;SDS011;21367;51.930;8.112;2023-07-08T05:03:03;83.40;;;76.60;;
35223;SDS011;21367;51.930;8.112;2023-07-08T05:08:07;83.25;;;76.10;;
35223;SDS011;21367;51.930;8.112;2023-07-08T05:13:14;85.72;;;78.80;;
35223;SDS011;21367;51.930;8.112;2023-07-08T05:18:17;85.18;;;78.10;;
35223;SDS011;21367;51.930;8.112;2023-07-08T05:23:21;66.13;;;60.75;;
35223;SDS011;21367;51.930;8.112;2023-07-08T05:28:27;72.95;;;67.15;;
35223;SDS011;21367;51.930;8.112;2023-07-08T05:33:31;77.88;;;71.30;;
35223;SDS011;21367;51.930;8.112;2023-07-08T05:38:35;80.25;;;73.85;;
35223;SDS011;21367;51.930;8.112;2023-07-08T05:43:42;68.93;;;62.67;;
35223;SDS011;21367;51.930;8.112;2023-07-08T05:48:45;74.35;;;67.70;;
35223;SDS011;21367;51.930;8.112;2023-07-08T05:53:51;85.00;;;77.90;;
35223;SDS011;21367;51.930;8.112;2023-07-08T05:58:57;81.20;;;74.28;;
35223;SDS011;21367;51.930;8.112;2023-07-08T06:04:01;71.47;;;65.80;;
35223;SDS011;21367;51.930;8.112;2023-07-08T06:09:04;71.35;;;65.18;;
35223;SDS011;21367;51.930;8.112;2023-07-08T06:14:10;73.30;;;66.90;;
35223;SDS011;21367;51.930;8.112;2023-07-08T06:19:14;60.65;;;55.55;;
35223;SDS011;21367;51.930;8.112;2023-07-08T06:24:18;87.13;;;79.78;;
35223;SDS011;21367;51.930;8.112;2023-07-08T06:29:24;72.63;;;66.32;;
35223;SDS011;21367;51.930;8.112;2023-07-08T06:34:28;113.72;;;103.97;;
35223;SDS011;21367;51.930;8.112;2023-07-08T06:39:32;111.85;;;102.70;;
35223;SDS011;21367;51.930;8.112;2023-07-08T06:44:38;114.57;;;105.10;;
35223;SDS011;21367;51.930;8.112;2023-07-08T06:49:46;96.03;;;87.75;;
35223;SDS011;21367;51.930;8.112;2023-07-08T06:54:49;93.45;;;85.35;;
35223;SDS011;21367;51.930;8.112;2023-07-08T06:59:56;59.85;;;54.72;;
35223;SDS011;21367;51.930;8.112;2023-07-08T07:05:00;66.05;;;59.92;;
35223;SDS011;21367;51.930;8.112;2023-07-08T07:10:04;84.10;;;76.55;;
35223;SDS011;21367;51.930;8.112;2023-07-08T07:15:11;72.85;;;65.63;;
35223;SDS011;21367;51.930;8.112;2023-07-08T07:20:15;72.47;;;66.35;;
35223;SDS011;21367;51.930;8.112;2023-07-08T07:25:19;73.40;;;67.20;;
35223;SDS011;21367;51.930;8.112;2023-07-08T07:30:25;43.45;;;39.45;;
35223;SDS011;21367;51.930;8.112;2023-07-08T07:35:29;61.10;;;55.13;;
35223;SDS011;21367;51.930;8.112;2023-07-08T07:40:36;34.67;;;31.70;;
35223;SDS011;21367;51.930;8.112;2023-07-08T07:45:42;57.70;;;52.95;;
35223;SDS011;21367;51.930;8.112;2023-07-08T07:50:46;56.13;;;51.38;;
35223;SDS011;21367;51.930;8.112;2023-07-08T07:55:55;73.60;;;67.57;;
35223;SDS011;21367;51.930;8.112;2023-07-08T08:01:03;71.72;;;65.90;;
35223;SDS011;21367;51.930;8.112;2023-07-08T08:06:06;27.00;;;24.45;;
35223;SDS011;21367;51.930;8.112;2023-07-08T08:11:10;40.10;;;36.20;;
35223;SDS011;21367;51.930;8.112;2023-07-08T08:16:17;47.30;;;42.65;;
35223;SDS011;21367;51.930;8.112;2023-07-08T08:21:21;53.58;;;48.28;;
35223;SDS011;21367;51.930;8.112;2023-07-08T08:26:24;53.22;;;48.78;;
35223;SDS011;21367;51.930;8.112;2023-07-08T08:31:31;19.98;;;15.38;;
35223;SDS011;21367;51.930;8.112;2023-07-08T08:36:35;20.60;;;14.05;;
35223;SDS011;21367;51.930;8.112;2023-07-08T08:41:40;61.55;;;24.80;;
35223;SDS011;21367;51.930;8.112;2023-07-08T08:46:49;29.92;;;24.35;;
35223;SDS011;21367;51.930;8.112;2023-07-08T08:51:57;28.52;;;25.90;;
35223;SDS011;21367;51.930;8.112;2023-07-08T08:57:05;27.13;;;24.33;;
35223;SDS011;21367;51.930;8.112;2023-07-08T09:02:22;22.40;;;20.27;;
35223;SDS011;21367;51.930;8.112;2023-07-08T09:07:30;24.50;;;22.00;;
35223;SDS011;21367;51.930;8.112;2023-07-08T09:12:39;24.85;;;19.77;;
35223;SDS011;21367;51.930;8.112;2023-07-08T09:17:45;31.30;;;27.77;;
35223;SDS011;21367;51.930;8.112;2023-07-08T09:22:51;27.20;;;18.63;;
35223;SDS011;21367;51.930;8.112;2023-07-08T09:28:04;23.67;;;21.35;;
35223;SDS011;21367;51.930;8.112;2023-07-08T09:33:10;56.88;;;49.95;;
35223;SDS011;21367;51.930;8.112;2023-07-08T09:38:15;29.45;;;26.80;;
35223;SDS011;21367;51.930;8.112;2023-07-08T09:43:23;27.33;;;24.23;;
35223;SDS011;21367;51.930;8.112;2023-07-08T09:48:33;42.20;;;38.33;;
35223;SDS011;21367;51.930;8.112;2023-07-08T09:53:38;29.48;;;27.13;;
35223;SDS011;21367;51.930;8.112;2023-07-08T09:58:42;44.28;;;40.22;;
35223;SDS011;21367;51.930;8.112;2023-07-08T10:03:52;25.83;;;23.38;;
35223;SDS011;21367;51.930;8.112;2023-07-08T10:09:02;32.45;;;29.40;;
35223;SDS011;21367;51.930;8.112;2023-07-08T10:14:10;21.58;;;19.40;;
35223;SDS011;21367;51.930;8.112;2023-07-08T10:19:22;31.15;;;28.13;;
35223;SDS011;21367;51.930;8.112;2023-07-08T10:24:30;47.15;;;42.75;;
35223;SDS011;21367;51.930;8.112;2023-07-08T10:29:45;48.55;;;44.38;;
35223;SDS011;21367;51.930;8.112;2023-07-08T10:34:59;45.42;;;41.78;;
35223;SDS011;21367;51.930;8.112;2023-07-08T10:40:18;77.80;;;71.65;;
35223;SDS011;21367;51.930;8.112;2023-07-08T10:45:38;34.47;;;31.40;;
35223;SDS011;21367;51.930;8.112;2023-07-08T10:50:55;57.75;;;53.17;;
35223;SDS011;21367;51.930;8.112;2023-07-08T10:56:11;99.45;;;91.70;;
35223;SDS011;21367;51.930;8.112;2023-07-08T11:01:21;71.70;;;66.25;;
35223;SDS011;21367;51.930;8.112;2023-07-08T11:06:37;99.63;;;91.73;;
35223;SDS011;21367;51.930;8.112;2023-07-08T11:11:50;113.30;;;103.97;;
35223;SDS011;21367;51.930;8.112;2023-07-08T11:16:59;94.90;;;87.60;;
35223;SDS011;21367;51.930;8.112;2023-07-08T11:22:19;97.05;;;88.80;;
35223;SDS011;21367;51.930;8.112;2023-07-08T11:27:24;91.75;;;84.80;;
35223;SDS011;21367;51.930;8.112;2023-07-08T11:32:31;103.68;;;95.35;;
35223;SDS011;21367;51.930;8.112;2023-07-08T11:37:39;102.90;;;94.85;;
35223;SDS011;21367;51.930;8.112;2023-07-08T11:42:44;104.00;;;95.40;;
35223;SDS011;21367;51.930;8.112;2023-07-08T11:47:51;106.30;;;97.63;;
35223;SDS011;21367;51.930;8.112;2023-07-08T11:52:59;107.78;;;99.25;;
35223;SDS011;21367;51.930;8.112;2023-07-08T11:58:13;91.00;;;84.10;;
35223;SDS011;21367;51.930;8.112;2023-07-08T12:03:28;101.95;;;93.78;;
35223;SDS011;21367;51.930;8.112;2023-07-08T12:08:39;91.72;;;84.32;;
35223;SDS011;21367;51.930;8.112;2023-07-08T12:13:45;90.47;;;82.85;;
35223;SDS011;21367;51.930;8.112;2023-07-08T12:23:55;85.13;;;77.78;;
35223;SDS011;21367;51.930;8.112;2023-07-08T12:34:12;93.20;;;84.82;;
35223;SDS011;21367;51.930;8.112;2023-07-08T12:39:20;85.28;;;78.20;;
35223;SDS011;21367;51.930;8.112;2023-07-08T12:44:25;81.78;;;75.20;;
35223;SDS011;21367;51.930;8.112;2023-07-08T12:49:29;80.25;;;73.72;;
35223;SDS011;21367;51.930;8.112;2023-07-08T12:54:37;81.22;;;74.65;;
35223;SDS011;21367;51.930;8.112;2023-07-08T12:59:41;62.80;;;57.75;;
35223;SDS011;21367;51.930;8.112;2023-07-08T13:04:45;76.30;;;69.45;;
35223;SDS011;21367;51.930;8.112;2023-07-08T13:09:53;79.20;;;72.57;;
35223;SDS011;21367;51.930;8.112;2023-07-08T13:14:57;78.25;;;71.78;;
35223;SDS011;21367;51.930;8.112;2023-07-08T13:20:02;77.10;;;70.65;;
35223;SDS011;21367;51.930;8.112;2023-07-08T13:25:12;78.03;;;70.93;;
35223;SDS011;21367;51.930;8.112;2023-07-08T13:30:20;76.82;;;70.55;;
35223;SDS011;21367;51.930;8.112;2023-07-08T13:35:27;75.30;;;68.32;;
35223;SDS011;21367;51.930;8.112;2023-07-08T13:40:40;75.30;;;69.05;;
35223;SDS011;21367;51.930;8.112;2023-07-08T13:45:47;69.20;;;63.72;;
35223;SDS011;21367;51.930;8.112;2023-07-08T13:50:51;77.80;;;71.50;;
35223;SDS011;21367;51.930;8.112;2023-07-08T13:56:03;80.72;;;73.68;;
35223;SDS011;21367;51.930;8.112;2023-07-08T14:01:15;79.80;;;73.15;;
35223;SDS011;21367;51.930;8.112;2023-07-08T14:06:21;73.97;;;67.53;;
35223;SDS011;21367;51.930;8.112;2023-07-08T14:11:29;83.00;;;75.07;;
35223;SDS011;21367;51.930;8.112;2023-07-08T14:16:33;82.18;;;75.13;;
35223;SDS011;21367;51.930;8.112;2023-07-08T14:21:39;79.07;;;71.85;;
35223;SDS011;21367;51.930;8.112;2023-07-08T14:26:46;76.43;;;70.43;;
35223;SDS011;21367;51.930;8.112;2023-07-08T14:31:49;68.03;;;62.35;;
35223;SDS011;21367;51.930;8.112;2023-07-08T14:36:53;72.10;;;66.22;;
35223;SDS011;21367;51.930;8.112;2023-07-08T14:41:59;63.83;;;58.00;;
35223;SDS011;21367;51.930;8.112;2023-07-08T14:47:04;89.75;;;82.88;;
35223;SDS011;21367;51.930;8.112;2023-07-08T14:52:11;75.85;;;69.65;;
35223;SDS011;21367;51.930;8.112;2023-07-08T14:57:18;71.00;;;65.43;;
35223;SDS011;21367;51.930;8.112;2023-07-08T15:02:22;79.55;;;72.95;;
35223;SDS011;21367;51.930;8.112;2023-07-08T15:07:26;72.38;;;66.13;;
35223;SDS011;21367;51.930;8.112;2023-07-08T15:12:32;73.68;;;67.47;;
35223;SDS011;21367;51.930;8.112;2023-07-08T15:17:36;70.22;;;64.43;;
35223;SDS011;21367;51.930;8.112;2023-07-08T15:22:43;76.35;;;70.05;;
35223;SDS011;21367;51.930;8.112;2023-07-08T15:27:50;81.55;;;75.05;;
35223;SDS011;21367;51.930;8.112;2023-07-08T15:32:56;77.45;;;71.22;;
35223;SDS011;21367;51.930;8.112;2023-07-08T15:38:01;76.15;;;69.68;;
35223;SDS011;21367;51.930;8.112;2023-07-08T15:43:11;67.35;;;61.78;;
35223;SDS011;21367;51.930;8.112;2023-07-08T15:48:17;71.82;;;66.20;;
35223;SDS011;21367;51.930;8.112;2023-07-08T15:53:21;76.78;;;70.38;;
35223;SDS011;21367;51.930;8.112;2023-07-08T15:58:28;75.05;;;68.40;;
35223;SDS011;21367;51.930;8.112;2023-07-08T16:03:35;75.03;;;68.50;;
35223;SDS011;21367;51.930;8.112;2023-07-08T16:08:40;84.20;;;77.63;;
35223;SDS011;21367;51.930;8.112;2023-07-08T16:13:46;79.38;;;72.57;;
35223;SDS011;21367;51.930;8.112;2023-07-08T16:18:51;71.22;;;65.47;;
35223;SDS011;21367;51.930;8.112;2023-07-08T16:23:55;77.00;;;70.88;;
35223;SDS011;21367;51.930;8.112;2023-07-08T16:29:04;73.25;;;67.00;;
35223;SDS011;21367;51.930;8.112;2023-07-08T16:34:08;61.03;;;56.08;;
35223;SDS011;21367;51.930;8.112;2023-07-08T16:39:14;73.03;;;66.70;;
35223;SDS011;21367;51.930;8.112;2023-07-08T16:44:20;67.82;;;62.03;;
35223;SDS011;21367;51.930;8.112;2023-07-08T16:49:23;66.00;;;60.67;;
35223;SDS011;21367;51.930;8.112;2023-07-08T16:54:27;73.80;;;67.47;;
35223;SDS011;21367;51.930;8.112;2023-07-08T16:59:33;76.15;;;69.82;;
35223;SDS011;21367;51.930;8.112;2023-07-08T17:04:37;78.70;;;72.10;;
35223;SDS011;21367;51.930;8.112;2023-07-08T17:09:41;68.57;;;62.45;;
35223;SDS011;21367;51.930;8.112;2023-07-08T17:14:47;77.15;;;70.78;;
35223;SDS011;21367;51.930;8.112;2023-07-08T17:19:51;77.70;;;71.05;;
35223;SDS011;21367;51.930;8.112;2023-07-08T17:24:55;82.60;;;75.57;;
35223;SDS011;21367;51.930;8.112;2023-07-08T17:30:01;80.43;;;73.87;;
35223;SDS011;21367;51.930;8.112;2023-07-08T17:35:08;74.50;;;68.65;;
35223;SDS011;21367;51.930;8.112;2023-07-08T17:40:15;75.28;;;68.88;;
35223;SDS011;21367;51.930;8.112;2023-07-08T17:45:24;81.00;;;73.68;;
35223;SDS011;21367;51.930;8.112;2023-07-08T17:50:33;87.22;;;79.97;;
35223;SDS011;21367;51.930;8.112;2023-07-08T17:55:36;93.28;;;85.55;;
35223;SDS011;21367;51.930;8.112;2023-07-08T18:00:43;94.72;;;86.85;;
35223;SDS011;21367;51.930;8.112;2023-07-08T18:05:49;92.00;;;84.30;;
35223;SDS011;21367;51.930;8.112;2023-07-08T18:10:52;103.37;;;95.63;;
35223;SDS011;21367;51.930;8.112;2023-07-08T18:15:59;101.55;;;93.82;;
35223;SDS011;21367;51.930;8.112;2023-07-08T18:21:04;108.55;;;100.32;;
35223;SDS011;21367;51.930;8.112;2023-07-08T18:26:14;104.20;;;96.15;;
35223;SDS011;21367;51.930;8.112;2023-07-08T18:31:27;97.65;;;90.05;;
35223;SDS011;21367;51.930;8.112;2023-07-08T18:36:32;99.38;;;91.55;;
35223;SDS011;21367;51.930;8.112;2023-07-08T18:46:45;77.43;;;71.30;;
35223;SDS011;21367;51.930;8.112;2023-07-08T18:51:49;70.93;;;65.07;;
35223;SDS011;21367;51.930;8.112;2023-07-08T18:56:53;67.73;;;61.77;;
35223;SDS011;21367;51.930;8.112;2023-07-08T19:02:00;69.38;;;63.83;;
35223;SDS011;21367;51.930;8.112;2023-07-08T19:07:03;59.28;;;52.90;;
35223;SDS011;21367;51.930;8.112;2023-07-08T19:12:08;57.80;;;52.53;;
35223;SDS011;21367;51.930;8.112;2023-07-08T19:17:15;49.28;;;45.25;;
35223;SDS011;21367;51.930;8.112;2023-07-08T19:22:19;56.33;;;51.33;;
35223;SDS011;21367;51.930;8.112;2023-07-08T19:27:23;41.57;;;36.63;;
35223;SDS011;21367;51.930;8.112;2023-07-08T19:32:29;39.00;;;35.08;;
35223;SDS011;21367;51.930;8.112;2023-07-08T19:37:33;40.90;;;36.97;;
35223;SDS011;21367;51.930;8.112;2023-07-08T19:42:36;44.85;;;40.58;;
35223;SDS011;21367;51.930;8.112;2023-07-08T19:47:43;42.92;;;39.47;;
35223;SDS011;21367;51.930;8.112;2023-07-08T19:52:47;46.28;;;41.80;;
35223;SDS011;21367;51.930;8.112;2023-07-08T19:57:52;50.10;;;45.45;;
35223;SDS011;21367;51.930;8.112;2023-07-08T20:03:00;49.67;;;45.45;;
35223;SDS011;21367;51.930;8.112;2023-07-08T20:08:05;62.90;;;57.55;;
35223;SDS011;21367;51.930;8.112;2023-07-08T20:13:25;46.38;;;42.13;;
35223;SDS011;21367;51.930;8.112;2023-07-08T20:18:34;75.18;;;69.00;;
35223;SDS011;21367;51.930;8.112;2023-07-08T20:23:37;84.35;;;77.75;;
35223;SDS011;21367;51.930;8.112;2023-07-08T20:28:42;72.23;;;66.07;;
35223;SDS011;21367;51.930;8.112;2023-07-08T20:33:48;87.07;;;80.00;;
35223;SDS011;21367;51.930;8.112;2023-07-08T20:38:53;88.70;;;81.07;;
35223;SDS011;21367;51.930;8.112;2023-07-08T20:43:57;85.32;;;78.80;;
35223;SDS011;21367;51.930;8.112;2023-07-08T20:49:07;79.72;;;73.05;;
35223;SDS011;21367;51.930;8.112;2023-07-08T20:54:12;73.55;;;67.78;;
35223;SDS011;21367;51.930;8.112;2023-07-08T20:59:16;72.53;;;66.32;;
35223;SDS011;21367;51.930;8.112;2023-07-08T21:04:23;71.20;;;65.07;;
35223;SDS011;21367;51.930;8.112;2023-07-08T21:09:27;61.10;;;56.33;;
35223;SDS011;21367;51.930;8.112;2023-07-08T21:14:33;61.78;;;56.20;;
35223;SDS011;21367;51.930;8.112;2023-07-08T21:19:39;67.60;;;61.60;;
35223;SDS011;21367;51.930;8.112;2023-07-08T21:24:43;57.83;;;53.30;;
35223;SDS011;21367;51.930;8.112;2023-07-08T21:29:46;62.22;;;56.92;;
35223;SDS011;21367;51.930;8.112;2023-07-08T21:34:53;58.92;;;53.95;;
35223;SDS011;21367;51.930;8.112;2023-07-08T21:39:57;78.68;;;72.30;;
35223;SDS011;21367;51.930;8.112;2023-07-08T21:45:01;83.70;;;77.38;;
35223;SDS011;21367;51.930;8.112;2023-07-08T21:50:07;93.72;;;86.47;;
35223;SDS011;21367;51.930;8.112;2023-07-08T21:55:13;98.10;;;90.63;;
35223;SDS011;21367;51.930;8.112;2023-07-08T22:00:18;95.95;;;88.22;;
35223;SDS011;21367;51.930;8.112;2023-07-08T22:05:42;95.95;;;88.25;;
35223;SDS011;21367;51.930;8.112;2023-07-08T22:10:47;87.45;;;80.75;;
35223;SDS011;21367;51.930;8.112;2023-07-08T22:15:53;226.95;;;208.43;;
35223;SDS011;21367;51.930;8.112;2023-07-08T22:21:01;262.35;;;240.98;;
35223;SDS011;21367;51.930;8.112;2023-07-08T22:26:09;264.45;;;242.90;;
35223;SDS011;21367;51.930;8.112;2023-07-08T22:31:14;264.73;;;243.52;;
35223;SDS011;21367;51.930;8.112;2023-07-08T22:36:28;261.90;;;241.05;;
35223;SDS011;21367;51.930;8.112;2023-07-08T22:41:33;257.48;;;236.68;;
35223;SDS011;21367;51.930;8.112;2023-07-08T22:46:42;249.73;;;229.77;;
35223;SDS011;21367;51.930;8.112;2023-07-08T22:51:49;222.95;;;205.20;;
35223;SDS011;21367;51.930;8.112;2023-07-08T22:56:55;229.30;;;211.52;;
35223;SDS011;21367;51.930;8.112;2023-07-08T23:01:59;215.65;;;198.52;;
35223;SDS011;21367;51.930;8.112;2023-07-08T23:07:06;215.70;;;199.02;;
35223;SDS011;21367;51.930;8.112;2023-07-08T23:12:11;214.18;;;196.82;;
35223;SDS011;21367;51.930;8.112;2023-07-08T23:17:15;219.32;;;201.98;;
35223;SDS011;21367;51.930;8.112;2023-07-08T23:22:21;205.05;;;189.00;;
35223;SDS011;21367;51.930;8.112;2023-07-08T23:27:25;213.00;;;195.70;;
35223;SDS011;21367;51.930;8.112;2023-07-08T23:32:28;195.27;;;179.85;;
35223;SDS011;21367;51.930;8.112;2023-07-08T23:37:35;202.63;;;186.70;;
35223;SDS011;21367;51.930;8.112;2023-07-08T23:42:38;206.20;;;190.05;;
35223;SDS011;21367;51.930;8.112;2023-07-08T23:47:42;178.07;;;163.95;;
35223;SDS011;21367;51.930;8.112;2023-07-08T23:52:49;165.52;;;152.50;;
35223;SDS011;21367;51.930;8.112;2023-07-08T23:57:53;147.15;;;135.55;;
